createdAt,value
2022-12-26T00:00:54.506Z,13.93
2022-12-26T00:03:20.948Z,14.32
2022-12-26T00:05:47.470Z,13.55
2022-12-26T00:08:13.762Z,13.27
2022-12-26T00:10:40.297Z,14.50
2022-12-26T00:13:39.953Z,14.13
2022-12-26T00:15:53.001Z,14.43
2022-12-26T00:18:19.348Z,15.05
2022-12-26T00:20:45.647Z,15.48
2022-12-26T00:23:11.954Z,15.40
2022-12-26T00:25:38.270Z,15.48
2022-12-26T00:28:04.633Z,15.48
2022-12-26T00:30:30.978Z,15.60
2022-12-26T00:32:57.272Z,16.08
2022-12-26T00:35:23.621Z,15.63
2022-12-26T00:37:49.947Z,15.63
2022-12-26T00:40:16.294Z,15.25
2022-12-26T00:42:42.680Z,14.40
2022-12-26T00:45:09.263Z,15.50
2022-12-26T00:47:35.636Z,16.15
2022-12-26T00:50:13.826Z,15.88
2022-12-26T00:52:41.550Z,14.73
2022-12-26T00:55:08.145Z,14.18
2022-12-26T00:57:37.394Z,14.70
2022-12-26T01:00:04.313Z,14.85
2022-12-26T01:02:40.744Z,13.77
2022-12-26T01:05:08.544Z,13.38
2022-12-26T01:08:20.027Z,14.30
2022-12-26T01:10:22.745Z,13.98
2022-12-26T01:12:49.181Z,14.35
2022-12-26T01:15:15.631Z,14.75
2022-12-26T01:17:41.942Z,15.25
2022-12-26T01:20:08.517Z,16.15
2022-12-26T01:22:35.028Z,16.77
2022-12-26T01:25:01.418Z,16.65
2022-12-26T01:27:27.934Z,17.08
2022-12-26T01:29:54.570Z,17.35
2022-12-26T01:32:20.979Z,16.08
2022-12-26T01:34:47.314Z,16.55
2022-12-26T01:37:14.074Z,16.52
2022-12-26T01:39:42.428Z,17.05
2022-12-26T01:42:12.326Z,16.25
2022-12-26T01:45:00.314Z,15.07
2022-12-26T01:47:35.595Z,15.00
2022-12-26T01:50:02.203Z,16.60
2022-12-26T01:52:28.521Z,17.05
2022-12-26T01:54:55.575Z,17.50
2022-12-26T01:57:24.421Z,17.45
2022-12-26T01:59:51.848Z,16.75
2022-12-26T02:02:21.560Z,17.58
2022-12-26T02:05:10.126Z,17.95
2022-12-26T02:07:38.436Z,18.05
2022-12-26T02:10:07.869Z,18.90
2022-12-26T02:12:38.851Z,18.00
2022-12-26T02:15:07.467Z,18.38
2022-12-26T02:17:33.768Z,19.33
2022-12-26T02:20:12.496Z,19.23
2022-12-26T02:22:57.815Z,19.70
2022-12-26T02:25:39.572Z,19.27
2022-12-26T02:28:08.731Z,20.10
2022-12-26T02:30:39.547Z,19.60
2022-12-26T02:35:47.383Z,19.52
2022-12-26T02:38:32.486Z,18.92
2022-12-26T02:40:58.788Z,20.40
2022-12-26T02:43:40.580Z,19.98
2022-12-26T02:46:46.391Z,19.35
2022-12-26T02:49:19.612Z,19.73
2022-12-26T02:52:04.782Z,18.55
2022-12-26T02:54:58.908Z,16.52
2022-12-26T02:57:47.777Z,16.65
2022-12-26T03:00:34.771Z,17.33
2022-12-26T03:03:25.287Z,16.20
2022-12-26T03:06:18.900Z,17.00
2022-12-26T03:09:09.853Z,15.77
2022-12-26T03:14:29.008Z,16.05
2022-12-26T03:17:21.821Z,18.33
2022-12-26T03:20:02.435Z,19.55
2022-12-26T03:22:37.671Z,19.83
2022-12-26T03:25:34.521Z,19.40
2022-12-26T03:28:00.848Z,21.02
2022-12-26T03:30:45.869Z,20.15
2022-12-26T03:33:31.063Z,21.20
2022-12-26T03:35:58.345Z,21.17
2022-12-26T03:38:28.606Z,19.30
2022-12-26T03:41:19.488Z,19.58
2022-12-26T03:44:17.281Z,19.25
2022-12-26T03:47:24.000Z,19.98
2022-12-26T03:50:12.322Z,19.20
2022-12-26T03:53:08.139Z,19.17
2022-12-26T03:55:55.946Z,18.48
2022-12-26T03:58:40.949Z,19.52
2022-12-26T04:01:29.122Z,17.55
2022-12-26T04:04:15.497Z,17.48
2022-12-26T04:07:13.173Z,15.93
2022-12-26T04:10:01.942Z,15.27
2022-12-26T04:12:48.208Z,14.90
2022-12-26T04:15:39.639Z,15.13
2022-12-26T04:18:28.724Z,13.52
2022-12-26T04:20:58.164Z,15.63
2022-12-26T04:24:00.708Z,15.00
2022-12-26T04:26:55.765Z,15.25
2022-12-26T04:29:41.119Z,16.38
2022-12-26T04:32:38.365Z,15.82
2022-12-26T04:35:30.209Z,16.83
2022-12-26T04:38:15.941Z,17.95
2022-12-26T04:41:04.002Z,18.27
2022-12-26T04:43:51.592Z,18.70
2022-12-26T04:46:19.608Z,17.52
2022-12-26T04:49:06.601Z,18.48
2022-12-26T04:51:33.462Z,18.25
2022-12-26T04:53:59.896Z,17.98
2022-12-26T04:56:26.248Z,18.45
2022-12-26T04:58:52.562Z,19.52
2022-12-26T05:01:39.652Z,19.30
2022-12-26T05:04:24.511Z,18.63
2022-12-26T05:07:09.863Z,18.85
2022-12-26T05:09:36.332Z,17.50
2022-12-26T05:12:03.900Z,17.35
2022-12-26T05:14:31.739Z,17.10
2022-12-26T05:17:19.504Z,18.05
2022-12-26T05:20:04.516Z,16.83
2022-12-26T05:22:51.146Z,16.52
2022-12-26T05:25:37.654Z,16.23
2022-12-26T05:28:22.629Z,15.68
2022-12-26T05:30:48.966Z,14.52
2022-12-26T05:33:34.481Z,15.38
2022-12-26T05:36:00.865Z,13.73
2022-12-26T05:38:27.245Z,13.98
2022-12-26T05:40:53.588Z,14.10
2022-12-26T05:43:19.881Z,12.43
2022-12-26T05:45:46.198Z,11.38
2022-12-26T05:48:12.561Z,11.43
2022-12-26T05:50:38.896Z,11.15
2022-12-26T05:53:05.277Z,11.05
2022-12-26T05:55:31.618Z,11.00
2022-12-26T05:57:59.771Z,12.05
2022-12-26T06:00:26.562Z,10.93
2022-12-26T06:02:53.009Z,9.48
2022-12-26T06:05:19.666Z,10.35
2022-12-26T06:07:46.026Z,8.85
2022-12-26T06:10:12.636Z,10.10
2022-12-26T06:12:39.097Z,8.82
2022-12-26T06:15:05.688Z,8.35
2022-12-26T06:17:31.994Z,8.43
2022-12-26T06:19:58.371Z,7.68
2022-12-26T06:22:24.708Z,8.27
2022-12-26T06:24:51.080Z,7.72
2022-12-26T06:27:17.372Z,8.15
2022-12-26T06:29:43.691Z,8.18
2022-12-26T06:32:10.029Z,8.25
2022-12-26T06:34:36.334Z,8.27
2022-12-26T06:37:02.687Z,8.20
2022-12-26T06:39:28.992Z,8.27
2022-12-26T06:41:55.336Z,8.10
2022-12-26T06:44:22.434Z,8.20
2022-12-26T06:46:48.878Z,8.25
2022-12-26T06:49:15.276Z,8.10
2022-12-26T06:51:41.642Z,8.25
2022-12-26T06:54:07.991Z,7.80
2022-12-26T06:56:35.446Z,7.95
2022-12-26T06:59:03.410Z,7.03
2022-12-26T07:01:31.030Z,7.18
2022-12-26T07:03:57.975Z,7.13
2022-12-26T07:06:27.411Z,7.50
2022-12-26T07:08:54.960Z,6.95
2022-12-26T07:11:22.807Z,7.15
2022-12-26T07:13:49.420Z,6.78
2022-12-26T07:16:15.871Z,7.32
2022-12-26T07:18:42.341Z,7.50
2022-12-26T07:21:10.215Z,6.93
2022-12-26T07:23:36.833Z,7.32
2022-12-26T07:26:03.598Z,7.22
2022-12-26T07:28:32.751Z,7.05
2022-12-26T07:31:00.435Z,7.30
2022-12-26T07:33:27.291Z,5.88
2022-12-26T07:35:53.616Z,7.25
2022-12-26T07:38:20.087Z,6.35
2022-12-26T07:40:46.396Z,6.60
2022-12-26T07:43:12.684Z,6.30
2022-12-26T07:45:45.032Z,6.30
2022-12-26T07:48:12.143Z,6.10
2022-12-26T07:50:38.431Z,7.10
2022-12-26T07:53:04.914Z,6.60
2022-12-26T07:55:31.452Z,6.22
2022-12-26T07:57:57.830Z,6.13
2022-12-26T08:00:24.245Z,6.10
2022-12-26T08:02:51.310Z,6.25
2022-12-26T08:05:17.902Z,5.63
2022-12-26T08:07:46.332Z,6.00
2022-12-26T08:10:12.626Z,5.70
2022-12-26T08:12:39.079Z,5.38
2022-12-26T08:15:05.634Z,5.40
2022-12-26T08:17:32.806Z,12.10
2022-12-26T08:19:59.130Z,9.65
2022-12-26T08:22:25.455Z,10.30
2022-12-26T08:24:51.904Z,7.53
2022-12-26T08:27:21.486Z,7.68
2022-12-26T08:29:47.842Z,4.85
2022-12-26T08:32:14.332Z,4.40
2022-12-26T08:34:40.642Z,6.22
2022-12-26T08:37:07.700Z,5.85
2022-12-26T08:39:34.041Z,4.35
2022-12-26T08:42:00.466Z,4.88
2022-12-26T08:44:28.225Z,5.25
2022-12-26T08:46:55.929Z,4.70
2022-12-26T08:49:22.511Z,4.75
2022-12-26T08:51:51.818Z,4.78
2022-12-26T08:54:18.529Z,5.28
2022-12-26T08:56:54.288Z,4.65
2022-12-26T08:59:20.673Z,5.18
2022-12-26T09:01:47.123Z,5.30
2022-12-26T09:04:13.613Z,5.22
2022-12-26T09:06:40.339Z,3.80
2022-12-26T09:09:08.983Z,4.22
2022-12-26T09:11:35.525Z,4.70
2022-12-26T09:14:03.244Z,4.28
2022-12-26T09:16:37.215Z,4.40
2022-12-26T09:19:05.480Z,4.75
2022-12-26T09:21:32.244Z,3.78
2022-12-26T09:24:10.246Z,3.75
2022-12-26T09:26:37.704Z,3.92
2022-12-26T09:29:04.024Z,3.83
2022-12-26T09:31:31.908Z,3.97
2022-12-26T09:33:58.813Z,4.40
2022-12-26T09:36:29.217Z,4.22
2022-12-26T09:38:56.214Z,3.45
2022-12-26T09:41:34.996Z,3.40
2022-12-26T09:44:13.640Z,3.22
2022-12-26T09:46:47.597Z,3.58
2022-12-26T09:49:17.095Z,5.25
2022-12-26T09:51:46.294Z,4.40
2022-12-26T09:54:19.224Z,3.85
2022-12-26T09:57:02.292Z,4.18
2022-12-26T09:59:30.981Z,2.97
2022-12-26T10:01:57.478Z,2.60
2022-12-26T10:04:29.095Z,2.60
2022-12-26T10:06:59.191Z,2.50
2022-12-26T10:09:43.401Z,2.40
2022-12-26T10:12:20.177Z,2.25
2022-12-26T10:14:46.478Z,1.50
2022-12-26T10:17:25.137Z,2.22
2022-12-26T10:20:11.993Z,1.40
2022-12-26T10:22:38.483Z,2.50
2022-12-26T10:25:14.519Z,2.25
2022-12-26T10:27:45.788Z,2.00
2022-12-26T10:30:15.993Z,1.73
2022-12-26T10:32:47.272Z,1.98
2022-12-26T10:35:25.255Z,2.08
2022-12-26T10:37:53.041Z,1.67
2022-12-26T10:40:40.495Z,1.45
2022-12-26T10:43:28.645Z,1.42
2022-12-26T10:45:58.001Z,1.48
2022-12-26T10:48:26.560Z,1.65
2022-12-26T10:50:52.902Z,2.08
2022-12-26T10:53:19.335Z,1.52
2022-12-26T10:55:45.728Z,2.65
2022-12-26T10:58:21.479Z,1.60
2022-12-26T11:00:50.005Z,1.95
2022-12-26T11:03:17.885Z,1.90
2022-12-26T11:08:53.537Z,1.60
2022-12-26T11:11:26.283Z,2.50
2022-12-26T11:14:00.903Z,1.85
2022-12-26T11:16:32.281Z,1.80
2022-12-26T11:18:58.784Z,2.20
2022-12-26T11:21:26.238Z,2.50
2022-12-26T11:23:53.657Z,1.83
2022-12-26T11:26:22.918Z,3.45
2022-12-26T11:29:04.273Z,2.20
2022-12-26T11:31:32.090Z,2.75
2022-12-26T11:33:59.174Z,2.50
2022-12-26T11:36:26.763Z,2.88
2022-12-26T11:38:58.324Z,3.22
2022-12-26T11:41:33.652Z,3.30
2022-12-26T11:44:17.556Z,1.63
2022-12-26T11:46:52.394Z,1.60
2022-12-26T11:49:39.037Z,2.75
2022-12-26T11:52:25.396Z,1.20
2022-12-26T11:54:51.724Z,1.35
2022-12-26T11:57:18.275Z,1.30
2022-12-26T11:59:44.857Z,0.70
2022-12-26T12:02:14.238Z,1.15
2022-12-26T12:04:40.614Z,1.10
2022-12-26T12:07:36.381Z,2.03
2022-12-26T12:10:21.237Z,1.65
2022-12-26T12:12:52.033Z,1.60
2022-12-26T12:15:22.890Z,1.17
2022-12-26T12:20:25.114Z,1.48
2022-12-26T12:23:17.944Z,0.98
2022-12-26T12:25:59.572Z,0.90
2022-12-26T12:28:37.333Z,1.00
2022-12-26T12:31:24.630Z,1.25
2022-12-26T12:33:55.366Z,1.15
2022-12-26T12:36:42.835Z,1.23
2022-12-26T12:39:16.532Z,1.08
2022-12-26T12:41:51.767Z,1.17
2022-12-26T12:44:19.574Z,1.20
2022-12-26T12:46:54.918Z,1.00
2022-12-26T12:49:30.346Z,1.00
2022-12-26T12:51:59.728Z,1.27
2022-12-26T12:54:32.252Z,1.00
2022-12-26T12:57:17.310Z,1.00
2022-12-26T12:59:43.662Z,1.23
2022-12-26T13:02:20.280Z,1.40
2022-12-26T13:04:49.395Z,1.02
2022-12-26T13:07:27.306Z,1.45
2022-12-26T13:09:58.130Z,1.70
2022-12-26T13:15:17.211Z,1.45
2022-12-26T13:17:56.311Z,1.42
2022-12-26T13:20:28.472Z,2.38
2022-12-26T13:23:30.617Z,2.95
2022-12-26T13:26:27.076Z,1.27
2022-12-26T13:29:15.042Z,1.90
2022-12-26T13:31:42.962Z,1.20
2022-12-26T13:34:11.690Z,1.10
2022-12-26T13:36:39.952Z,1.42
2022-12-26T13:39:12.461Z,1.17
2022-12-26T13:42:04.712Z,1.35
2022-12-26T13:44:32.929Z,1.55
2022-12-26T13:46:59.491Z,1.60
2022-12-26T13:49:30.571Z,1.23
2022-12-26T13:51:58.391Z,1.48
2022-12-26T13:54:25.888Z,1.23
2022-12-26T13:56:59.646Z,2.35
2022-12-26T13:59:28.614Z,1.60
2022-12-26T14:02:07.179Z,1.00
2022-12-26T14:04:46.430Z,1.08
2022-12-26T14:07:21.929Z,1.33
2022-12-26T14:10:01.924Z,1.45
2022-12-26T14:12:31.150Z,1.85
2022-12-26T14:15:03.381Z,2.10
2022-12-26T14:17:48.737Z,2.08
2022-12-26T14:20:16.028Z,2.10
2022-12-26T14:22:45.717Z,2.00
2022-12-26T14:25:14.890Z,1.95
2022-12-26T14:27:51.068Z,1.60
2022-12-26T14:30:20.211Z,1.10
2022-12-26T14:33:01.752Z,1.95
2022-12-26T14:35:33.876Z,2.20
2022-12-26T14:38:03.752Z,1.45
2022-12-26T14:40:37.577Z,1.23
2022-12-26T14:43:13.953Z,1.23
2022-12-26T14:45:45.225Z,2.13
2022-12-26T14:48:20.701Z,2.00
2022-12-26T14:50:51.067Z,2.65
2022-12-26T14:53:20.689Z,1.50
2022-12-26T14:55:57.793Z,1.20
2022-12-26T14:58:24.118Z,1.92
2022-12-26T15:00:52.167Z,1.40
2022-12-26T15:03:26.316Z,1.15
2022-12-26T15:05:56.243Z,1.58
2022-12-26T15:08:25.530Z,1.63
2022-12-26T15:11:18.478Z,1.35
2022-12-26T15:14:03.543Z,1.60
2022-12-26T15:16:37.028Z,1.48
2022-12-26T15:19:09.428Z,1.60
2022-12-26T15:21:56.503Z,3.83
2022-12-26T15:24:45.403Z,5.03
2022-12-26T15:27:18.326Z,4.18
2022-12-26T15:29:53.858Z,2.72
2022-12-26T15:32:38.923Z,2.95
2022-12-26T15:35:12.302Z,2.33
2022-12-26T15:37:57.616Z,4.55
2022-12-26T15:40:26.594Z,5.57
2022-12-26T15:43:02.232Z,4.80
2022-12-26T15:45:58.251Z,4.00
2022-12-26T15:48:27.706Z,6.50
2022-12-26T15:51:20.298Z,5.45
2022-12-26T15:54:09.840Z,5.32
2022-12-26T15:56:41.929Z,2.20
2022-12-26T15:59:30.797Z,2.33
2022-12-26T16:01:58.391Z,1.70
2022-12-26T16:04:24.757Z,10.20
2022-12-26T16:06:54.183Z,18.35
2022-12-26T16:09:20.450Z,13.02
2022-12-26T16:11:55.545Z,8.95
2022-12-26T16:14:33.017Z,5.20
2022-12-26T16:17:14.686Z,5.55
2022-12-26T16:19:42.130Z,5.63
2022-12-26T16:22:30.623Z,6.20
2022-12-26T16:24:57.284Z,8.18
2022-12-26T16:27:24.473Z,4.25
2022-12-26T16:30:11.269Z,3.03
2022-12-26T16:32:39.242Z,2.72
2022-12-26T16:35:07.727Z,27.13
2022-12-26T16:37:34.639Z,48.13
2022-12-26T16:40:19.754Z,26.63
2022-12-26T16:42:54.899Z,15.55
2022-12-26T16:45:22.081Z,8.00
2022-12-26T16:47:49.831Z,5.88
2022-12-26T16:50:17.548Z,3.90
2022-12-26T16:52:46.738Z,3.88
2022-12-26T16:55:31.803Z,4.65
2022-12-26T16:57:59.965Z,2.20
2022-12-26T17:00:27.257Z,2.38
2022-12-26T17:02:59.016Z,3.10
2022-12-26T17:05:37.121Z,2.25
2022-12-26T17:08:04.216Z,3.17
2022-12-26T17:10:32.577Z,2.60
2022-12-26T17:13:03.640Z,2.28
2022-12-26T17:15:32.018Z,3.97
2022-12-26T17:17:59.293Z,3.10
2022-12-26T17:20:25.680Z,3.10
2022-12-26T17:22:55.999Z,2.78
2022-12-26T17:25:30.434Z,2.13
2022-12-26T17:28:08.807Z,2.40
2022-12-26T17:30:42.280Z,2.58
2022-12-26T17:33:13.346Z,2.38
2022-12-26T17:36:32.896Z,2.50
2022-12-26T17:38:27.250Z,3.17
2022-12-26T17:40:55.384Z,2.75
2022-12-26T17:43:25.801Z,2.92
2022-12-26T17:45:52.095Z,3.45
2022-12-26T17:48:18.462Z,3.80
2022-12-26T17:50:46.419Z,4.88
2022-12-26T17:53:12.714Z,4.60
2022-12-26T17:55:39.021Z,3.42
2022-12-26T17:58:05.286Z,2.70
2022-12-26T18:00:31.806Z,2.28
2022-12-26T18:02:58.109Z,2.42
2022-12-26T18:05:24.413Z,2.70
2022-12-26T18:07:51.700Z,2.65
2022-12-26T18:10:18.011Z,2.90
2022-12-26T18:12:44.382Z,2.78
2022-12-26T18:15:10.731Z,2.85
2022-12-26T18:17:37.078Z,2.70
2022-12-26T18:20:04.032Z,2.90
2022-12-26T18:22:30.330Z,2.33
2022-12-26T18:24:56.683Z,3.08
2022-12-26T18:27:27.139Z,3.65
2022-12-26T18:29:53.455Z,8.90
2022-12-26T18:32:27.524Z,5.05
2022-12-26T18:34:54.169Z,4.93
2022-12-26T18:37:22.001Z,5.72
2022-12-26T18:39:48.672Z,5.05
2022-12-26T18:42:16.949Z,6.28
2022-12-26T18:44:43.838Z,4.57
2022-12-26T18:47:16.155Z,4.60
2022-12-26T18:49:42.870Z,4.05
2022-12-26T18:52:10.100Z,4.40
2022-12-26T18:54:36.537Z,4.15
2022-12-26T18:57:03.997Z,4.88
2022-12-26T18:59:30.490Z,4.00
2022-12-26T19:01:56.892Z,3.20
2022-12-26T19:04:25.836Z,4.35
2022-12-26T19:06:53.346Z,4.18
2022-12-26T19:09:19.862Z,3.80
2022-12-26T19:11:46.241Z,4.35
2022-12-26T19:14:20.207Z,3.30
2022-12-26T19:16:46.821Z,7.68
2022-12-26T19:19:14.824Z,4.03
2022-12-26T19:21:42.704Z,6.97
2022-12-26T19:24:10.321Z,4.28
2022-12-26T19:26:36.635Z,4.65
2022-12-26T19:29:03.590Z,5.82
2022-12-26T19:31:32.495Z,5.20
2022-12-26T19:33:59.134Z,9.88
2022-12-26T19:36:25.745Z,6.13
2022-12-26T19:38:52.719Z,3.63
2022-12-26T19:41:19.132Z,3.10
2022-12-26T19:43:45.487Z,4.38
2022-12-26T19:46:13.087Z,5.13
2022-12-26T19:48:39.657Z,3.97
2022-12-26T19:51:07.161Z,7.63
2022-12-26T19:53:33.966Z,4.80
2022-12-26T19:56:00.328Z,3.95
2022-12-26T19:58:29.846Z,3.08
2022-12-26T20:01:04.487Z,2.63
2022-12-26T20:03:30.833Z,2.97
2022-12-26T20:06:02.765Z,3.60
2022-12-26T20:08:29.304Z,3.58
2022-12-26T20:11:00.602Z,2.40
2022-12-26T20:13:27.372Z,2.15
2022-12-26T20:15:53.667Z,2.60
2022-12-26T20:18:20.029Z,2.33
2022-12-26T20:20:52.194Z,4.82
2022-12-26T20:23:18.519Z,3.70
2022-12-26T20:25:44.808Z,2.95
2022-12-26T20:28:11.270Z,2.20
2022-12-26T20:30:39.295Z,2.72
2022-12-26T20:33:05.681Z,2.42
2022-12-26T20:35:32.060Z,2.03
2022-12-26T20:37:58.396Z,2.30
2022-12-26T20:40:25.536Z,2.30
2022-12-26T20:42:52.047Z,2.58
2022-12-26T20:45:18.342Z,3.13
2022-12-26T20:47:44.862Z,2.00
2022-12-26T20:50:11.453Z,2.15
2022-12-26T20:52:37.850Z,1.92
2022-12-26T20:55:04.274Z,2.15
2022-12-26T20:57:30.865Z,1.90
2022-12-26T20:59:57.211Z,2.55
2022-12-26T21:02:23.901Z,2.05
2022-12-26T21:04:51.145Z,1.85
2022-12-26T21:07:19.091Z,1.90
2022-12-26T21:09:46.481Z,2.33
2022-12-26T21:12:13.266Z,2.08
2022-12-26T21:14:39.687Z,1.63
2022-12-26T21:17:06.116Z,1.70
2022-12-26T21:19:32.462Z,1.75
2022-12-26T21:21:58.815Z,1.70
2022-12-26T21:24:27.254Z,1.88
2022-12-26T21:26:53.960Z,2.42
2022-12-26T21:29:21.909Z,1.75
2022-12-26T21:31:48.656Z,1.80
2022-12-26T21:34:15.858Z,2.45
2022-12-26T21:37:03.177Z,1.95
2022-12-26T21:39:29.907Z,2.70
2022-12-26T21:41:56.341Z,2.38
2022-12-26T21:44:23.374Z,2.95
2022-12-26T21:46:49.775Z,2.40
2022-12-26T21:49:16.217Z,2.63
2022-12-26T21:51:42.655Z,3.40
2022-12-26T21:54:30.692Z,3.00
2022-12-26T21:56:57.080Z,3.10
2022-12-26T21:59:41.882Z,2.72
2022-12-26T22:02:31.928Z,1.95
2022-12-26T22:04:58.847Z,2.57
2022-12-26T22:07:25.285Z,2.05
2022-12-26T22:09:52.521Z,2.80
2022-12-26T22:12:41.884Z,2.88
2022-12-26T22:15:27.365Z,2.58
2022-12-26T22:17:56.281Z,2.20
2022-12-26T22:20:23.004Z,3.17
2022-12-26T22:22:49.786Z,2.55
2022-12-26T22:25:16.361Z,2.83
2022-12-26T22:27:42.726Z,2.92
2022-12-26T22:30:09.443Z,2.95
2022-12-26T22:32:35.780Z,2.63
2022-12-26T22:35:02.339Z,3.10
2022-12-26T22:37:28.767Z,2.97
2022-12-26T22:39:57.775Z,3.38
2022-12-26T22:42:24.172Z,2.80
2022-12-26T22:44:50.623Z,3.38
2022-12-26T22:47:16.957Z,3.08
2022-12-26T22:49:43.350Z,2.90
2022-12-26T22:52:15.519Z,3.00
2022-12-26T22:54:43.701Z,3.65
2022-12-26T22:57:10.098Z,3.80
2022-12-26T23:00:06.952Z,3.92
2022-12-26T23:02:22.989Z,3.22
2022-12-26T23:04:49.627Z,3.15
2022-12-26T23:07:18.891Z,3.20
2022-12-26T23:09:45.396Z,3.75
2022-12-26T23:12:30.639Z,3.70
2022-12-26T23:14:57.076Z,3.90
2022-12-26T23:17:43.823Z,3.30
2022-12-26T23:20:30.785Z,3.33
2022-12-26T23:22:57.389Z,3.60
2022-12-26T23:25:24.026Z,3.70
2022-12-26T23:28:09.181Z,3.25
2022-12-26T23:30:35.663Z,3.50
2022-12-26T23:33:02.003Z,3.80
2022-12-26T23:35:28.398Z,3.58
2022-12-26T23:37:54.877Z,4.00
2022-12-26T23:40:21.999Z,3.65
2022-12-26T23:42:48.422Z,4.20
2022-12-26T23:45:14.882Z,3.30
2022-12-26T23:47:42.364Z,4.45
2022-12-26T23:50:09.593Z,3.15
2022-12-26T23:52:36.072Z,3.67
2022-12-26T23:55:02.576Z,3.17
2022-12-26T23:57:28.883Z,3.20
2022-12-26T23:59:55.233Z,3.92
